Varzedo, Brazil
Current Conditions -  °F | °C
As of 4:00 PM on Thursday 18 Dec 2014 (Local Time) from SBIL Reporting Station
Rain Showers Rain Showers  
Wind Chill: 77°   Ceiling: 7000
Heat Index: 78°   Visibility: 6mi
Dew Point: 72°   Wind: 9mph
Humidity: 83%   Direction: 20°NNE
Pressure: 29.83"   Gusts: NA
Location:  12.98°S, 39.37°W
Report Text: SBIL 181900Z 02008KT 9999 VCSH SCT015 BKN070 25/22 Q1010
Loading
Personal Weather Stations






























Interactive Weather Map New forecast layout! Learn more

10-Day Weather Forecast

Advertisements
Track Severe Weather on mobile